LFSI

Saint-Dizier-Robinson (BA 113) Air Base Airport

Saint-Dizier/Robinson, France
TAF LFSI 260200Z 2603/2703 36005KT CAVOK
Issued Valid From Valid To
Apr-26 @ 02:00 UTC
(4 hours ago)
Apr-26 @ 03:00 UTC
(3 hours ago)
Apr-27 @ 03:00 UTC
(in 21 hours)
Apr-26 @ 03:00 to Apr-27 @ 03:00
TAF LFSI 260200Z 2603/2703 36005KT CAVOK
Wind Visibility Clouds Conditions
360° at 5 knots 10,000+ meters
  • No significant clouds
TAF LFSI 260200Z 2603/2703 36005KT CAVOK
Issued Apr-26 @ 02:00 UTC
(4 hours ago)
Valid From Apr-26 @ 03:00 UTC
(3 hours ago)
Valid To Apr-27 @ 03:00 UTC
(in 21 hours)
Apr-26 @ 03:00 - Apr-27 @ 03:00
Wind Visibility
360° at 5 knots 10,000+ meters
Clouds
  • No significant clouds
Conditions